createdAt,value
2023-04-23T00:02:06.299Z,8.26
2023-04-23T00:04:36.487Z,8.14
2023-04-23T00:07:04.131Z,7.77
2023-04-23T00:09:32.569Z,7.96
2023-04-23T00:12:00.007Z,8.02
2023-04-23T00:14:26.881Z,8.07
2023-04-23T00:16:54.017Z,7.96
2023-04-23T00:19:20.962Z,7.94
2023-04-23T00:21:49.647Z,8.09
2023-04-23T00:24:16.331Z,7.51
2023-04-23T00:26:43.192Z,7.81
2023-04-23T00:29:09.854Z,7.93
2023-04-23T00:31:36.510Z,7.79
2023-04-23T00:34:03.338Z,7.71
2023-04-23T00:36:30.080Z,7.95
2023-04-23T00:38:56.848Z,7.91
2023-04-23T00:41:23.823Z,7.75
2023-04-23T00:43:52.736Z,7.30
2023-04-23T00:46:19.466Z,7.62
2023-04-23T00:48:47.922Z,7.64
2023-04-23T00:51:16.709Z,7.57
2023-04-23T00:53:43.338Z,7.57
2023-04-23T00:56:11.365Z,7.40
2023-04-23T00:58:38.029Z,7.47
2023-04-23T01:01:06.213Z,7.54
2023-04-23T01:03:36.519Z,7.48
2023-04-23T01:06:04.173Z,7.57
2023-04-23T01:08:32.151Z,7.60
2023-04-23T01:10:59.956Z,7.58
2023-04-23T01:13:29.624Z,7.42
2023-04-23T01:15:56.901Z,7.60
2023-04-23T01:18:25.093Z,7.75
2023-04-23T01:20:52.014Z,7.82
2023-04-23T01:23:20.402Z,7.83
2023-04-23T01:25:47.230Z,7.86
2023-04-23T01:28:14.017Z,8.01
2023-04-23T01:30:44.076Z,7.69
2023-04-23T01:33:11.494Z,8.11
2023-04-23T01:35:40.746Z,8.08
2023-04-23T01:38:11.041Z,8.15
2023-04-23T01:40:38.567Z,8.08
2023-04-23T01:43:07.360Z,7.78
2023-04-23T01:45:34.072Z,8.23
2023-04-23T01:48:01.099Z,8.33
2023-04-23T01:50:29.771Z,8.50
2023-04-23T01:52:56.455Z,8.43
2023-04-23T01:55:23.719Z,8.53
2023-04-23T01:57:51.665Z,8.68
2023-04-23T02:00:18.760Z,8.71
2023-04-23T02:02:45.610Z,8.67
2023-04-23T02:05:15.157Z,8.72
2023-04-23T02:07:44.996Z,8.74
2023-04-23T02:10:12.245Z,8.64
2023-04-23T02:12:40.109Z,8.81
2023-04-23T02:15:10.372Z,8.46
2023-04-23T02:17:37.665Z,8.70
2023-04-23T02:20:09.917Z,8.81
2023-04-23T02:22:40.946Z,8.76
2023-04-23T02:25:08.301Z,8.70
2023-04-23T02:27:35.495Z,8.70
2023-04-23T02:30:02.552Z,8.37
2023-04-23T02:32:29.296Z,8.61
2023-04-23T02:34:56.565Z,8.66
2023-04-23T02:37:23.189Z,8.66
2023-04-23T02:39:49.892Z,8.73
2023-04-23T02:42:16.937Z,8.55
2023-04-23T02:44:43.643Z,8.48
2023-04-23T02:47:10.554Z,8.55
2023-04-23T02:49:37.161Z,8.51
2023-04-23T02:52:05.236Z,8.45
2023-04-23T02:54:32.431Z,8.51
2023-04-23T02:57:00.090Z,8.33
2023-04-23T02:59:26.694Z,8.52
2023-04-23T03:01:53.322Z,7.91
2023-04-23T03:04:20.587Z,8.24
2023-04-23T03:06:48.987Z,8.24
2023-04-23T03:09:15.802Z,8.27
2023-04-23T03:11:42.536Z,8.39
2023-04-23T03:14:12.637Z,8.43
2023-04-23T03:16:39.373Z,7.92
2023-04-23T03:19:06.397Z,8.37
2023-04-23T03:21:33.097Z,8.41
2023-04-23T03:24:00.168Z,7.95
2023-04-23T03:26:27.804Z,8.22
2023-04-23T03:28:54.428Z,8.41
2023-04-23T03:31:21.075Z,8.38
2023-04-23T03:33:47.820Z,8.32
2023-04-23T03:36:21.421Z,8.44
2023-04-23T03:38:48.179Z,8.39
2023-04-23T03:41:15.820Z,8.46
2023-04-23T03:43:42.810Z,8.38
2023-04-23T03:46:32.484Z,8.35
2023-04-23T03:48:59.134Z,8.50
2023-04-23T03:51:28.135Z,8.49
2023-04-23T03:53:55.206Z,8.74
2023-04-23T03:56:34.638Z,8.67
2023-04-23T03:59:13.019Z,8.64
2023-04-23T04:01:39.797Z,8.84
2023-04-23T04:04:06.724Z,8.84
2023-04-23T04:06:33.547Z,8.89
2023-04-23T04:09:00.337Z,8.85
2023-04-23T04:11:27.816Z,8.76
2023-04-23T04:13:54.436Z,8.87
2023-04-23T04:16:21.064Z,8.67
2023-04-23T04:18:47.662Z,9.01
2023-04-23T04:21:14.300Z,8.98
2023-04-23T04:23:40.868Z,9.03
2023-04-23T04:26:08.061Z,9.17
2023-04-23T04:28:37.295Z,9.06
2023-04-23T04:31:05.484Z,9.14
2023-04-23T04:33:33.182Z,9.16
2023-04-23T04:36:00.537Z,9.11
2023-04-23T04:38:27.212Z,8.77
2023-04-23T04:41:00.080Z,9.18
2023-04-23T04:43:27.095Z,9.24
2023-04-23T04:45:53.800Z,9.36
2023-04-23T04:48:20.662Z,9.45
2023-04-23T04:50:47.798Z,9.09
2023-04-23T04:53:14.654Z,9.35
2023-04-23T04:55:41.568Z,9.49
2023-04-23T04:58:08.260Z,9.65
2023-04-23T05:00:34.870Z,9.62
2023-04-23T05:03:01.752Z,9.70
2023-04-23T05:05:29.544Z,9.73
2023-04-23T05:07:59.041Z,9.68
2023-04-23T05:10:26.377Z,9.82
2023-04-23T05:12:53.260Z,9.75
2023-04-23T05:15:19.978Z,9.83
2023-04-23T05:17:47.641Z,9.59
2023-04-23T05:20:14.683Z,9.34
2023-04-23T05:22:42.949Z,9.34
2023-04-23T05:25:12.039Z,9.13
2023-04-23T05:27:38.995Z,9.65
2023-04-23T05:30:08.391Z,9.38
2023-04-23T05:32:35.816Z,9.83
2023-04-23T05:35:03.804Z,9.76
2023-04-23T05:37:30.828Z,9.52
2023-04-23T05:39:58.348Z,9.97
2023-04-23T05:42:26.050Z,10.23
2023-04-23T05:44:52.727Z,9.90
2023-04-23T05:47:21.309Z,9.80
2023-04-23T05:49:47.951Z,10.24
2023-04-23T05:52:14.635Z,10.47
2023-04-23T05:54:42.342Z,10.11
2023-04-23T05:57:09.177Z,10.47
2023-04-23T05:59:36.100Z,10.40
2023-04-23T06:02:02.926Z,10.54
2023-04-23T06:04:29.909Z,10.35
2023-04-23T06:06:56.774Z,10.62
2023-04-23T06:09:23.445Z,10.95
2023-04-23T06:11:52.363Z,10.96
2023-04-23T06:14:18.989Z,11.40
2023-04-23T06:16:45.537Z,11.39
2023-04-23T06:19:12.154Z,11.60
2023-04-23T06:21:39.970Z,11.45
2023-04-23T06:24:07.999Z,11.65
2023-04-23T06:26:35.000Z,11.33
2023-04-23T06:29:09.643Z,11.81
2023-04-23T06:31:41.967Z,11.87
2023-04-23T06:34:08.666Z,11.94
2023-04-23T06:36:35.233Z,12.08
2023-04-23T06:39:01.761Z,12.22
2023-04-23T06:41:28.370Z,12.28
2023-04-23T06:44:14.053Z,12.76
2023-04-23T06:46:47.861Z,13.27
2023-04-23T06:49:14.457Z,13.68
2023-04-23T06:51:40.988Z,14.01
2023-04-23T06:54:07.549Z,14.54
2023-04-23T06:56:34.115Z,15.04
2023-04-23T06:59:01.046Z,15.23
2023-04-23T07:01:28.347Z,15.82
2023-04-23T07:03:55.254Z,15.86
2023-04-23T07:06:21.862Z,16.19
2023-04-23T07:08:48.788Z,16.49
2023-04-23T07:11:15.451Z,16.83
2023-04-23T07:13:42.440Z,16.95
2023-04-23T07:16:09.106Z,17.38
2023-04-23T07:18:35.674Z,17.43
2023-04-23T07:21:02.664Z,17.72
2023-04-23T07:23:29.181Z,17.87
2023-04-23T07:25:55.718Z,17.80
2023-04-23T07:28:22.370Z,17.76
2023-04-23T07:30:49.169Z,18.33
2023-04-23T07:33:15.943Z,18.60
2023-04-23T07:35:42.514Z,18.70
2023-04-23T07:38:09.077Z,18.74
2023-04-23T07:40:36.960Z,18.81
2023-04-23T07:43:03.610Z,19.09
2023-04-23T07:45:30.265Z,19.45
2023-04-23T07:47:57.572Z,19.50
2023-04-23T07:50:24.362Z,19.42
2023-04-23T07:52:51.061Z,19.20
2023-04-23T07:55:17.740Z,19.60
2023-04-23T07:57:44.313Z,19.47
2023-04-23T08:00:11.361Z,19.55
2023-04-23T08:02:40.992Z,19.47
2023-04-23T08:05:08.363Z,19.45
2023-04-23T08:07:35.087Z,19.61
2023-04-23T08:10:08.504Z,19.65
2023-04-23T08:12:36.039Z,19.81
2023-04-23T08:15:03.587Z,19.87
2023-04-23T08:17:36.923Z,20.20
2023-04-23T08:20:06.736Z,20.38
2023-04-23T08:22:33.328Z,20.32
2023-04-23T08:24:59.957Z,20.37
2023-04-23T08:27:26.633Z,20.42
2023-04-23T08:29:54.256Z,20.46
2023-04-23T08:32:21.399Z,20.06
2023-04-23T08:34:48.059Z,20.26
2023-04-23T08:37:27.100Z,21.14
2023-04-23T08:39:57.056Z,21.22
2023-04-23T08:42:40.505Z,21.21
2023-04-23T08:45:07.634Z,20.59
2023-04-23T08:47:36.150Z,20.87
2023-04-23T08:50:04.294Z,20.86
2023-04-23T08:52:34.825Z,21.21
2023-04-23T08:55:04.604Z,21.01
2023-04-23T08:57:31.718Z,21.39
2023-04-23T09:00:05.991Z,21.34
2023-04-23T09:02:33.997Z,21.89
2023-04-23T09:05:05.404Z,21.21
2023-04-23T09:07:34.815Z,21.87
2023-04-23T09:10:02.588Z,22.40
2023-04-23T09:12:29.872Z,22.07
2023-04-23T09:14:57.059Z,22.07
2023-04-23T09:17:24.579Z,22.18
2023-04-23T09:19:51.915Z,22.29
2023-04-23T09:22:47.079Z,22.71
2023-04-23T09:25:19.441Z,23.03
2023-04-23T09:27:48.153Z,22.84
2023-04-23T09:30:15.407Z,23.17
2023-04-23T09:32:43.841Z,23.66
2023-04-23T09:35:15.208Z,23.96
2023-04-23T09:37:43.898Z,23.40
2023-04-23T09:40:13.760Z,22.94
2023-04-23T09:42:40.414Z,23.51
2023-04-23T09:45:09.361Z,23.36
2023-04-23T09:47:39.833Z,23.13
2023-04-23T09:50:07.419Z,23.83
2023-04-23T09:52:34.215Z,24.40
2023-04-23T09:55:05.650Z,23.52
2023-04-23T09:57:41.813Z,22.70
2023-04-23T10:00:21.201Z,22.27
2023-04-23T10:02:49.957Z,22.06
2023-04-23T10:05:24.174Z,22.44
2023-04-23T10:07:52.771Z,23.12
2023-04-23T10:10:20.345Z,23.33
2023-04-23T10:12:54.796Z,22.57
2023-04-23T10:15:23.648Z,22.48
2023-04-23T10:17:51.546Z,23.01
2023-04-23T10:20:21.222Z,24.01
2023-04-23T10:22:48.349Z,24.31
2023-04-23T10:25:15.578Z,24.51
2023-04-23T10:27:52.224Z,23.46
2023-04-23T10:30:22.100Z,23.16
2023-04-23T10:32:49.822Z,23.71
2023-04-23T10:35:16.820Z,23.43
2023-04-23T10:37:46.361Z,23.46
2023-04-23T10:40:14.796Z,23.26
2023-04-23T10:42:44.159Z,23.13
2023-04-23T10:47:48.793Z,24.18
2023-04-23T10:50:24.169Z,24.73
2023-04-23T10:52:53.415Z,24.19
2023-04-23T10:55:22.984Z,23.57
2023-04-23T10:58:01.983Z,23.26
2023-04-23T11:00:44.286Z,22.87
2023-04-23T11:03:30.356Z,22.62
2023-04-23T11:06:01.775Z,22.15
2023-04-23T11:08:33.433Z,21.75
2023-04-23T11:11:02.362Z,21.41
2023-04-23T11:13:30.180Z,21.24
2023-04-23T11:16:16.402Z,21.63
2023-04-23T11:18:59.974Z,21.38
2023-04-23T11:21:58.575Z,21.39
2023-04-23T11:24:33.304Z,21.71
2023-04-23T11:27:01.271Z,23.01
2023-04-23T11:29:28.711Z,23.70
2023-04-23T11:34:26.148Z,23.31
2023-04-23T11:36:54.662Z,23.74
2023-04-23T11:39:24.157Z,23.60
2023-04-23T11:41:52.314Z,23.15
2023-04-23T11:44:21.077Z,23.14
2023-04-23T11:46:49.373Z,23.14
2023-04-23T11:49:18.555Z,23.34
2023-04-23T11:51:46.460Z,23.61
2023-04-23T11:54:13.888Z,23.25
2023-04-23T11:56:41.184Z,23.57
2023-04-23T11:59:08.325Z,23.09
2023-04-23T12:01:48.427Z,23.81
2023-04-23T12:04:17.365Z,23.95
2023-04-23T12:06:46.856Z,24.45
2023-04-23T12:09:14.991Z,24.31
2023-04-23T12:11:43.172Z,24.18
2023-04-23T12:14:12.540Z,24.02
2023-04-23T12:16:47.107Z,24.22
2023-04-23T12:19:44.701Z,24.52
2023-04-23T12:22:11.253Z,25.64
2023-04-23T12:24:51.310Z,26.39
2023-04-23T12:27:21.937Z,26.40
2023-04-23T12:29:49.251Z,26.39
2023-04-23T12:32:15.805Z,25.74
2023-04-23T12:34:56.000Z,26.21
2023-04-23T12:37:27.130Z,25.72
2023-04-23T12:39:56.310Z,24.83
2023-04-23T12:42:22.956Z,24.12
2023-04-23T12:44:51.599Z,24.32
2023-04-23T12:47:21.182Z,24.31
2023-04-23T12:49:52.891Z,24.84
2023-04-23T12:52:19.731Z,25.08
2023-04-23T12:54:46.330Z,24.84
2023-04-23T12:57:14.271Z,25.77
2023-04-23T12:59:41.409Z,27.09
2023-04-23T13:02:09.210Z,27.17
2023-04-23T13:04:36.832Z,26.68
2023-04-23T13:07:04.927Z,26.48
2023-04-23T13:09:31.790Z,25.69
2023-04-23T13:11:59.924Z,25.14
2023-04-23T13:14:27.861Z,24.95
2023-04-23T13:16:54.428Z,24.15
2023-04-23T13:19:21.095Z,23.59
2023-04-23T13:21:47.696Z,23.47
2023-04-23T13:24:15.641Z,23.32
2023-04-23T13:26:42.457Z,22.88
2023-04-23T13:29:09.157Z,22.84
2023-04-23T13:31:35.902Z,22.64
2023-04-23T13:34:03.041Z,22.35
2023-04-23T13:36:30.894Z,21.86
2023-04-23T13:38:57.688Z,21.50
2023-04-23T13:41:24.423Z,21.06
2023-04-23T13:43:51.222Z,20.68
2023-04-23T13:46:19.518Z,20.67
2023-04-23T13:48:46.223Z,20.61
2023-04-23T13:51:32.528Z,20.43
2023-04-23T13:53:59.544Z,20.72
2023-04-23T13:56:30.392Z,20.72
2023-04-23T13:59:18.347Z,20.79
2023-04-23T14:01:49.575Z,20.66
2023-04-23T14:04:17.355Z,20.70
2023-04-23T14:06:44.306Z,20.45
2023-04-23T14:09:11.316Z,20.06
2023-04-23T14:11:40.198Z,20.24
2023-04-23T14:14:07.472Z,19.98
2023-04-23T14:16:34.056Z,20.05
2023-04-23T14:19:00.822Z,19.84
2023-04-23T14:21:27.558Z,19.64
2023-04-23T14:24:04.609Z,19.08
2023-04-23T14:26:44.932Z,19.00
2023-04-23T14:29:36.360Z,18.81
2023-04-23T14:32:03.308Z,19.07
2023-04-23T14:34:30.007Z,18.91
2023-04-23T14:36:56.687Z,18.94
2023-04-23T14:39:23.481Z,18.80
2023-04-23T14:41:50.185Z,18.51
2023-04-23T14:44:17.886Z,18.31
2023-04-23T14:46:44.618Z,17.75
2023-04-23T14:49:11.426Z,17.41
2023-04-23T14:51:38.204Z,16.85
2023-04-23T14:54:05.005Z,15.92
2023-04-23T14:56:31.678Z,15.21
2023-04-23T14:58:59.616Z,14.58
2023-04-23T15:01:26.282Z,14.38
2023-04-23T15:03:53.670Z,14.06
2023-04-23T15:06:20.632Z,14.00
2023-04-23T15:08:47.328Z,13.79
2023-04-23T15:11:14.200Z,13.70
2023-04-23T15:13:48.712Z,13.86
2023-04-23T15:16:48.286Z,13.77
2023-04-23T15:19:18.567Z,13.66
2023-04-23T15:21:46.448Z,13.70
2023-04-23T15:24:13.357Z,13.63
2023-04-23T15:26:40.323Z,13.62
2023-04-23T15:29:09.067Z,13.55
2023-04-23T15:31:36.991Z,13.47
2023-04-23T15:34:08.495Z,13.03
2023-04-23T15:36:37.158Z,13.17
2023-04-23T15:39:03.923Z,13.11
2023-04-23T15:41:30.579Z,13.01
2023-04-23T15:43:57.175Z,13.19
2023-04-23T15:46:23.821Z,12.98
2023-04-23T15:48:50.451Z,13.13
2023-04-23T15:51:17.644Z,13.06
2023-04-23T15:53:44.377Z,12.82
2023-04-23T15:56:11.978Z,12.90
2023-04-23T15:58:38.769Z,13.04
2023-04-23T16:01:07.243Z,12.98
2023-04-23T16:03:34.505Z,12.62
2023-04-23T16:06:01.412Z,12.83
2023-04-23T16:08:29.125Z,12.78
2023-04-23T16:10:58.201Z,12.83
2023-04-23T16:13:25.289Z,12.95
2023-04-23T16:15:52.453Z,12.89
2023-04-23T16:18:19.193Z,12.94
2023-04-23T16:20:46.857Z,12.82
2023-04-23T16:23:14.356Z,12.81
2023-04-23T16:25:41.283Z,13.03
2023-04-23T16:28:07.898Z,13.11
2023-04-23T16:30:34.835Z,13.17
2023-04-23T16:33:02.465Z,12.99
2023-04-23T16:35:30.355Z,13.35
2023-04-23T16:37:57.013Z,13.36
2023-04-23T16:40:23.707Z,13.43
2023-04-23T16:42:50.322Z,13.29
2023-04-23T16:45:17.202Z,13.32
2023-04-23T16:47:44.282Z,13.35
2023-04-23T16:50:11.354Z,13.33
2023-04-23T16:52:38.122Z,12.90
2023-04-23T16:55:05.723Z,13.52
2023-04-23T16:57:33.091Z,13.43
2023-04-23T16:59:59.700Z,13.26
2023-04-23T17:02:26.773Z,13.41
2023-04-23T17:04:53.861Z,13.52
2023-04-23T17:07:20.864Z,13.44
2023-04-23T17:09:47.805Z,13.27
2023-04-23T17:12:17.071Z,12.83
2023-04-23T17:14:44.859Z,13.55
2023-04-23T17:17:11.573Z,13.46
2023-04-23T17:19:38.128Z,13.30
2023-04-23T17:22:06.262Z,13.43
2023-04-23T17:24:32.866Z,13.46
2023-04-23T17:27:01.562Z,13.44
2023-04-23T17:29:29.167Z,13.38
2023-04-23T17:31:56.217Z,13.22
2023-04-23T17:34:22.877Z,13.29
2023-04-23T17:36:49.508Z,13.33
2023-04-23T17:39:22.208Z,13.55
2023-04-23T17:41:49.813Z,13.40
2023-04-23T17:44:16.465Z,13.38
2023-04-23T17:46:42.982Z,13.41
2023-04-23T17:49:10.666Z,13.40
2023-04-23T17:51:38.465Z,13.31
2023-04-23T17:54:05.848Z,13.38
2023-04-23T17:56:32.568Z,13.26
2023-04-23T17:59:00.240Z,13.38
2023-04-23T18:01:28.066Z,13.35
2023-04-23T18:03:55.081Z,13.38
2023-04-23T18:06:22.684Z,13.37
2023-04-23T18:08:49.450Z,13.26
2023-04-23T18:11:16.101Z,13.12
2023-04-23T18:13:43.037Z,13.22
2023-04-23T18:16:09.612Z,12.92
2023-04-23T18:18:36.299Z,13.11
2023-04-23T18:21:04.467Z,13.11
2023-04-23T18:23:31.393Z,12.93
2023-04-23T18:26:01.442Z,12.99
2023-04-23T18:28:28.776Z,12.88
2023-04-23T18:31:01.946Z,13.09
2023-04-23T18:33:47.756Z,12.46
2023-04-23T18:36:25.450Z,12.95
2023-04-23T18:38:52.239Z,12.85
2023-04-23T18:41:18.864Z,12.89
2023-04-23T18:43:45.564Z,12.45
2023-04-23T18:46:12.658Z,12.87
2023-04-23T18:48:46.190Z,12.83
2023-04-23T18:51:43.684Z,12.82
2023-04-23T18:54:14.759Z,12.70
2023-04-23T18:56:42.343Z,12.61
2023-04-23T18:59:09.030Z,12.67
2023-04-23T19:01:35.943Z,12.62
2023-04-23T19:04:03.677Z,12.63
2023-04-23T19:06:31.208Z,12.73
2023-04-23T19:08:58.432Z,12.62
2023-04-23T19:11:26.968Z,12.61
2023-04-23T19:13:53.750Z,12.66
2023-04-23T19:16:20.529Z,12.66
2023-04-23T19:18:47.182Z,12.81
2023-04-23T19:21:13.952Z,12.83
2023-04-23T19:24:42.536Z,12.82
2023-04-23T19:29:31.606Z,12.80
2023-04-23T19:50:06.835Z,10.46
2023-04-23T19:52:37.029Z,11.34
2023-04-23T19:55:03.966Z,11.32
2023-04-23T19:57:30.808Z,11.44
2023-04-23T19:59:57.397Z,11.54
2023-04-23T20:02:24.077Z,11.40
2023-04-23T20:04:50.621Z,11.43
2023-04-23T20:07:17.254Z,11.56
2023-04-23T20:09:45.190Z,11.52
2023-04-23T20:12:13.785Z,11.50
2023-04-23T20:14:40.435Z,11.58
2023-04-23T20:17:07.763Z,11.43
2023-04-23T20:19:34.447Z,11.29
2023-04-23T20:22:02.391Z,11.09
2023-04-23T20:24:28.989Z,11.02
2023-04-23T20:26:56.501Z,11.18
2023-04-23T20:29:23.149Z,10.57
2023-04-23T20:31:49.904Z,11.08
2023-04-23T20:34:17.133Z,11.17
2023-04-23T20:36:47.012Z,10.70
2023-04-23T20:39:13.944Z,10.77
2023-04-23T20:41:40.891Z,11.18
2023-04-23T20:44:08.917Z,11.18
2023-04-23T20:46:36.698Z,11.00
2023-04-23T20:49:04.300Z,11.08
2023-04-23T20:51:34.536Z,10.87
2023-04-23T20:54:02.251Z,10.78
2023-04-23T20:56:29.412Z,10.56
2023-04-23T20:58:59.400Z,10.50
2023-04-23T21:01:26.681Z,10.58
2023-04-23T21:03:54.794Z,10.43
2023-04-23T21:06:22.132Z,10.54
2023-04-23T21:08:49.132Z,10.49
2023-04-23T21:11:20.337Z,10.42
2023-04-23T21:13:47.104Z,10.41
2023-04-23T21:16:14.100Z,10.46
2023-04-23T21:18:41.322Z,9.89
2023-04-23T21:21:08.123Z,9.88
2023-04-23T21:23:35.518Z,10.26
2023-04-23T21:26:03.564Z,10.33
2023-04-23T21:28:31.129Z,10.12
2023-04-23T21:31:06.614Z,10.08
2023-04-23T21:33:33.495Z,9.93
2023-04-23T21:36:00.110Z,9.92
2023-04-23T21:38:26.779Z,10.10
2023-04-23T21:40:53.399Z,9.50
2023-04-23T21:43:20.059Z,9.98
2023-04-23T21:45:46.772Z,9.34
2023-04-23T21:48:14.991Z,10.12
2023-04-23T21:50:41.855Z,10.13
2023-04-23T21:53:08.707Z,10.09
2023-04-23T21:55:35.734Z,10.13
2023-04-23T22:00:32.071Z,10.37
2023-04-23T22:03:00.045Z,10.29
2023-04-23T22:05:29.284Z,10.30
2023-04-23T22:07:56.796Z,10.26
2023-04-23T22:10:23.815Z,10.36
2023-04-23T22:12:50.744Z,10.22
2023-04-23T22:15:19.207Z,10.01
2023-04-23T22:17:50.320Z,10.50
2023-04-23T22:20:18.967Z,9.95
2023-04-23T22:22:46.188Z,10.13
2023-04-23T22:25:13.046Z,10.39
2023-04-23T22:27:41.135Z,10.30
2023-04-23T22:30:09.833Z,10.51
2023-04-23T22:32:38.438Z,10.06
2023-04-23T22:35:06.699Z,10.39
2023-04-23T22:37:34.221Z,10.02
2023-04-23T22:40:01.557Z,10.34
2023-04-23T22:42:28.216Z,10.23
2023-04-23T22:44:55.165Z,10.47
2023-04-23T22:47:22.340Z,10.43
2023-04-23T22:49:50.146Z,10.40
2023-04-23T22:52:16.900Z,10.51
2023-04-23T22:54:43.577Z,10.36
2023-04-23T22:57:11.502Z,10.57
2023-04-23T22:59:41.846Z,10.48
2023-04-23T23:02:08.740Z,10.40
2023-04-23T23:04:37.809Z,10.61
2023-04-23T23:07:06.243Z,10.69
2023-04-23T23:09:32.925Z,10.67
2023-04-23T23:12:03.866Z,10.69
2023-04-23T23:14:31.717Z,10.53
2023-04-23T23:16:58.900Z,10.13
2023-04-23T23:19:26.981Z,10.64
2023-04-23T23:21:53.734Z,10.69
2023-04-23T23:24:21.633Z,10.65
2023-04-23T23:26:48.298Z,10.69
2023-04-23T23:29:14.955Z,10.87
2023-04-23T23:31:42.060Z,10.18
2023-04-23T23:34:08.860Z,10.85
2023-04-23T23:36:35.760Z,10.81
2023-04-23T23:39:02.485Z,10.55
2023-04-23T23:41:29.207Z,10.75
2023-04-23T23:43:55.842Z,10.72
2023-04-23T23:46:22.625Z,10.86
2023-04-23T23:48:50.479Z,10.74
2023-04-23T23:51:17.144Z,10.90
2023-04-23T23:53:43.725Z,10.85
2023-04-23T23:56:10.668Z,10.33
2023-04-23T23:58:37.244Z,10.68
